sensor_id;sensor_type;location;lat;lon;timestamp;pressure;altitude;pressure_sealevel;temperature;humidity
1472;BME280;963;42.644;23.336;2023-02-15T00:00:25;95307.88;;;4.83;61.81
1472;BME280;963;42.644;23.336;2023-02-15T00:02:51;95312.78;;;4.85;61.71
1472;BME280;963;42.644;23.336;2023-02-15T00:05:16;95340.38;;;4.72;62.04
1472;BME280;963;42.644;23.336;2023-02-15T00:07:42;95338.06;;;4.70;62.35
1472;BME280;963;42.644;23.336;2023-02-15T00:10:07;95346.34;;;4.72;62.65
1472;BME280;963;42.644;23.336;2023-02-15T00:12:33;95338.91;;;4.80;61.67
1472;BME280;963;42.644;23.336;2023-02-15T00:14:58;95340.56;;;4.76;61.85
1472;BME280;963;42.644;23.336;2023-02-15T00:17:27;95318.00;;;4.57;62.31
1472;BME280;963;42.644;23.336;2023-02-15T00:19:52;95361.03;;;4.82;62.14
1472;BME280;963;42.644;23.336;2023-02-15T00:22:18;95355.13;;;4.77;62.41
1472;BME280;963;42.644;23.336;2023-02-15T00:24:43;95354.19;;;4.72;62.06
1472;BME280;963;42.644;23.336;2023-02-15T00:27:09;95349.34;;;4.80;62.28
1472;BME280;963;42.644;23.336;2023-02-15T00:29:34;95348.75;;;4.83;61.80
1472;BME280;963;42.644;23.336;2023-02-15T00:32:00;95331.50;;;4.73;62.10
1472;BME280;963;42.644;23.336;2023-02-15T00:34:27;95330.91;;;4.76;61.74
1472;BME280;963;42.644;23.336;2023-02-15T00:36:52;95351.38;;;4.83;62.03
1472;BME280;963;42.644;23.336;2023-02-15T00:39:18;95342.22;;;4.85;62.00
1472;BME280;963;42.644;23.336;2023-02-15T00:41:45;95340.94;;;4.83;62.19
1472;BME280;963;42.644;23.336;2023-02-15T00:44:11;95353.13;;;4.74;62.93
1472;BME280;963;42.644;23.336;2023-02-15T00:46:37;95347.31;;;4.77;61.99
1472;BME280;963;42.644;23.336;2023-02-15T00:49:03;95341.34;;;4.62;62.42
1472;BME280;963;42.644;23.336;2023-02-15T00:51:29;95368.38;;;4.66;62.34
1472;BME280;963;42.644;23.336;2023-02-15T00:53:54;95353.41;;;4.72;62.42
1472;BME280;963;42.644;23.336;2023-02-15T00:56:20;95331.13;;;4.66;62.57
1472;BME280;963;42.644;23.336;2023-02-15T00:58:45;95361.78;;;4.83;62.20
1472;BME280;963;42.644;23.336;2023-02-15T01:01:14;95339.41;;;4.68;61.91
1472;BME280;963;42.644;23.336;2023-02-15T01:03:40;95348.47;;;4.70;62.25
1472;BME280;963;42.644;23.336;2023-02-15T01:06:10;95341.63;;;4.75;62.38
1472;BME280;963;42.644;23.336;2023-02-15T01:08:36;95331.88;;;4.80;62.00
1472;BME280;963;42.644;23.336;2023-02-15T01:11:17;95345.00;;;4.61;62.76
1472;BME280;963;42.644;23.336;2023-02-15T01:13:48;95343.38;;;4.65;62.03
1472;BME280;963;42.644;23.336;2023-02-15T01:16:14;95348.78;;;4.69;62.11
1472;BME280;963;42.644;23.336;2023-02-15T01:18:40;95347.81;;;4.65;62.83
1472;BME280;963;42.644;23.336;2023-02-15T01:21:19;95318.84;;;4.66;62.55
1472;BME280;963;42.644;23.336;2023-02-15T01:23:46;95329.19;;;4.71;62.70
1472;BME280;963;42.644;23.336;2023-02-15T01:26:11;95332.84;;;4.70;62.65
1472;BME280;963;42.644;23.336;2023-02-15T01:28:37;95307.66;;;4.66;62.13
1472;BME280;963;42.644;23.336;2023-02-15T01:31:14;95333.53;;;4.62;62.67
1472;BME280;963;42.644;23.336;2023-02-15T01:33:40;95331.13;;;4.66;62.92
1472;BME280;963;42.644;23.336;2023-02-15T01:36:05;95329.66;;;4.74;62.44
1472;BME280;963;42.644;23.336;2023-02-15T01:38:31;95308.72;;;4.65;62.51
1472;BME280;963;42.644;23.336;2023-02-15T01:40:56;95320.88;;;4.69;62.41
1472;BME280;963;42.644;23.336;2023-02-15T01:43:47;95322.03;;;4.63;62.98
1472;BME280;963;42.644;23.336;2023-02-15T01:46:14;95324.16;;;4.61;63.08
1472;BME280;963;42.644;23.336;2023-02-15T01:48:50;95332.06;;;4.56;63.47
1472;BME280;963;42.644;23.336;2023-02-15T01:51:20;95319.16;;;4.51;63.71
1472;BME280;963;42.644;23.336;2023-02-15T01:54:01;95320.78;;;4.47;63.87
1472;BME280;963;42.644;23.336;2023-02-15T01:56:30;95318.44;;;4.32;64.23
1472;BME280;963;42.644;23.336;2023-02-15T01:59:00;95306.41;;;4.50;63.62
1472;BME280;963;42.644;23.336;2023-02-15T02:01:28;95339.56;;;4.44;64.00
1472;BME280;963;42.644;23.336;2023-02-15T02:06:39;95313.47;;;4.49;64.11
1472;BME280;963;42.644;23.336;2023-02-15T02:09:05;95300.50;;;4.30;63.94
1472;BME280;963;42.644;23.336;2023-02-15T02:11:30;95292.69;;;4.44;63.82
1472;BME280;963;42.644;23.336;2023-02-15T02:13:56;95299.09;;;4.52;63.62
1472;BME280;963;42.644;23.336;2023-02-15T02:29:57;95384.84;;;4.48;63.67
1472;BME280;963;42.644;23.336;2023-02-15T02:37:59;95332.06;;;4.56;64.27
1472;BME280;963;42.644;23.336;2023-02-15T02:40:48;95324.75;;;4.58;63.91
1472;BME280;963;42.644;23.336;2023-02-15T02:43:50;95333.91;;;4.69;64.07
1472;BME280;963;42.644;23.336;2023-02-15T02:46:29;95332.84;;;4.70;63.56
1472;BME280;963;42.644;23.336;2023-02-15T02:48:56;95324.69;;;4.31;64.57
1472;BME280;963;42.644;23.336;2023-02-15T02:51:22;95341.91;;;4.59;63.96
1472;BME280;963;42.644;23.336;2023-02-15T02:53:55;95319.16;;;4.51;63.68
1472;BME280;963;42.644;23.336;2023-02-15T02:56:48;95325.63;;;4.54;64.08
1472;BME280;963;42.644;23.336;2023-02-15T02:59:28;95339.03;;;4.75;63.83
1472;BME280;963;42.644;23.336;2023-02-15T03:02:05;95324.66;;;4.63;63.64
1472;BME280;963;42.644;23.336;2023-02-15T03:04:40;95332.06;;;4.56;63.76
1472;BME280;963;42.644;23.336;2023-02-15T03:07:13;95337.28;;;4.56;63.92
1472;BME280;963;42.644;23.336;2023-02-15T03:09:45;95335.34;;;4.62;64.03
1472;BME280;963;42.644;23.336;2023-02-15T03:12:15;95345.78;;;4.76;63.16
1472;BME280;963;42.644;23.336;2023-02-15T03:14:44;95349.34;;;4.80;63.34
1472;BME280;963;42.644;23.336;2023-02-15T03:17:13;95347.81;;;4.79;63.24
1472;BME280;963;42.644;23.336;2023-02-15T03:19:40;95348.47;;;4.70;63.45
1472;BME280;963;42.644;23.336;2023-02-15T03:22:13;95333.53;;;4.62;63.42
1472;BME280;963;42.644;23.336;2023-02-15T03:27:44;95353.59;;;4.76;63.53
1472;BME280;963;42.644;23.336;2023-02-15T03:30:11;95348.22;;;4.86;63.08
1472;BME280;963;42.644;23.336;2023-02-15T03:32:38;95352.91;;;4.70;63.35
1472;BME280;963;42.644;23.336;2023-02-15T03:35:06;95337.09;;;4.66;63.53
1472;BME280;963;42.644;23.336;2023-02-15T03:37:36;95349.81;;;4.82;63.39
1472;BME280;963;42.644;23.336;2023-02-15T03:45:47;95337.66;;;4.77;63.42
1472;BME280;963;42.644;23.336;2023-02-15T03:48:35;95361.03;;;4.82;63.57
1472;BME280;963;42.644;23.336;2023-02-15T03:51:07;95330.03;;;4.81;63.53
1472;BME280;963;42.644;23.336;2023-02-15T03:53:52;95337.69;;;4.91;62.89
1472;BME280;963;42.644;23.336;2023-02-15T03:56:19;95346.66;;;4.85;63.51
1472;BME280;963;42.644;23.336;2023-02-15T03:58:45;95347.34;;;4.90;63.40
1472;BME280;963;42.644;23.336;2023-02-15T04:01:39;95352.25;;;4.92;63.39
1472;BME280;963;42.644;23.336;2023-02-15T04:04:36;95329.56;;;4.79;63.38
1472;BME280;963;42.644;23.336;2023-02-15T04:07:05;95359.13;;;4.88;63.21
1472;BME280;963;42.644;23.336;2023-02-15T04:09:31;95363.75;;;4.91;62.92
1472;BME280;963;42.644;23.336;2023-02-15T04:12:15;95361.44;;;4.89;63.29
1472;BME280;963;42.644;23.336;2023-02-15T04:14:40;95374.28;;;4.86;63.49
1472;BME280;963;42.644;23.336;2023-02-15T04:17:25;95356.41;;;4.65;64.15
1472;BME280;963;42.644;23.336;2023-02-15T04:19:50;95370.13;;;4.85;63.58
1472;BME280;963;42.644;23.336;2023-02-15T04:22:34;95343.47;;;4.74;63.55
1472;BME280;963;42.644;23.336;2023-02-15T04:25:19;95412.84;;;4.70;64.14
1472;BME280;963;42.644;23.336;2023-02-15T04:27:50;95371.38;;;4.87;64.13
1472;BME280;963;42.644;23.336;2023-02-15T04:30:17;95381.50;;;4.89;64.20
1472;BME280;963;42.644;23.336;2023-02-15T04:32:44;95399.84;;;4.84;64.23
1472;BME280;963;42.644;23.336;2023-02-15T04:35:10;95391.81;;;4.80;64.61
1472;BME280;963;42.644;23.336;2023-02-15T04:37:36;95397.59;;;4.77;64.72
1472;BME280;963;42.644;23.336;2023-02-15T04:40:03;95384.59;;;4.91;64.23
1472;BME280;963;42.644;23.336;2023-02-15T04:42:29;95393.06;;;4.83;64.56
1472;BME280;963;42.644;23.336;2023-02-15T04:44:55;95405.16;;;4.92;63.89
1472;BME280;963;42.644;23.336;2023-02-15T04:47:20;95385.19;;;4.88;64.34
1472;BME280;963;42.644;23.336;2023-02-15T04:49:47;95384.03;;;4.94;64.10
1472;BME280;963;42.644;23.336;2023-02-15T04:52:12;95404.88;;;4.94;64.00
1472;BME280;963;42.644;23.336;2023-02-15T04:54:38;95398.50;;;5.00;64.01
1472;BME280;963;42.644;23.336;2023-02-15T04:57:04;95392.53;;;4.86;64.40
1472;BME280;963;42.644;23.336;2023-02-15T04:59:29;95400.53;;;4.89;64.47
1472;BME280;963;42.644;23.336;2023-02-15T05:01:55;95413.38;;;4.99;64.37
1472;BME280;963;42.644;23.336;2023-02-15T05:04:20;95407.59;;;4.89;63.99
1472;BME280;963;42.644;23.336;2023-02-15T05:06:46;95400.81;;;4.88;64.01
1472;BME280;963;42.644;23.336;2023-02-15T05:09:12;95415.88;;;4.91;64.14
1472;BME280;963;42.644;23.336;2023-02-15T05:11:37;95405.47;;;4.91;63.95
1472;BME280;963;42.644;23.336;2023-02-15T05:14:03;95401.56;;;4.75;64.41
1472;BME280;963;42.644;23.336;2023-02-15T05:16:28;95407.72;;;4.65;64.78
1472;BME280;963;42.644;23.336;2023-02-15T05:18:54;95416.63;;;4.78;64.60
1472;BME280;963;42.644;23.336;2023-02-15T05:21:19;95408.31;;;4.76;64.45
1472;BME280;963;42.644;23.336;2023-02-15T05:23:45;95418.38;;;4.82;64.43
1472;BME280;963;42.644;23.336;2023-02-15T05:26:17;95407.75;;;4.79;64.86
1472;BME280;963;42.644;23.336;2023-02-15T05:29:02;95410.28;;;4.84;64.69
1472;BME280;963;42.644;23.336;2023-02-15T05:31:28;95418.75;;;4.76;64.54
1472;BME280;963;42.644;23.336;2023-02-15T05:33:53;95458.94;;;4.88;65.07
1472;BME280;963;42.644;23.336;2023-02-15T05:36:19;95436.16;;;4.94;64.36
1472;BME280;963;42.644;23.336;2023-02-15T05:38:44;95430.19;;;4.93;64.30
1472;BME280;963;42.644;23.336;2023-02-15T05:41:11;95422.25;;;4.85;64.48
1472;BME280;963;42.644;23.336;2023-02-15T05:43:37;95449.00;;;5.04;63.66
1472;BME280;963;42.644;23.336;2023-02-15T05:46:03;95417.03;;;4.85;64.08
1472;BME280;963;42.644;23.336;2023-02-15T05:48:29;95438.69;;;4.99;63.78
1472;BME280;963;42.644;23.336;2023-02-15T05:53:31;95422.81;;;4.82;64.64
1472;BME280;963;42.644;23.336;2023-02-15T05:55:57;95435.97;;;5.04;63.76
1472;BME280;963;42.644;23.336;2023-02-15T05:58:26;95427.94;;;5.14;63.55
1472;BME280;963;42.644;23.336;2023-02-15T06:00:52;95419.56;;;5.03;63.29
1472;BME280;963;42.644;23.336;2023-02-15T06:03:18;95430.56;;;5.14;63.26
1472;BME280;963;42.644;23.336;2023-02-15T06:05:43;95445.25;;;5.10;63.41
1472;BME280;963;42.644;23.336;2023-02-15T06:08:08;95437.91;;;5.12;62.86
1472;BME280;963;42.644;23.336;2023-02-15T06:10:34;95461.56;;;5.16;63.68
1472;BME280;963;42.644;23.336;2023-02-15T06:12:59;95486.38;;;5.13;63.56
1472;BME280;963;42.644;23.336;2023-02-15T06:15:25;95434.06;;;5.23;63.33
1472;BME280;963;42.644;23.336;2023-02-15T06:17:50;95429.81;;;5.27;62.97
1472;BME280;963;42.644;23.336;2023-02-15T06:20:15;95418.47;;;5.18;63.26
1472;BME280;963;42.644;23.336;2023-02-15T06:22:41;95432.50;;;5.36;62.46
1472;BME280;963;42.644;23.336;2023-02-15T06:25:06;95443.13;;;5.40;62.54
1472;BME280;963;42.644;23.336;2023-02-15T06:27:35;95415.69;;;5.28;62.20
1472;BME280;963;42.644;23.336;2023-02-15T06:30:00;95448.34;;;5.40;61.97
1472;BME280;963;42.644;23.336;2023-02-15T06:32:26;95442.94;;;5.36;62.22
1472;BME280;963;42.644;23.336;2023-02-15T06:34:51;95444.28;;;5.33;62.85
1472;BME280;963;42.644;23.336;2023-02-15T06:37:16;95430.09;;;5.40;62.25
1472;BME280;963;42.644;23.336;2023-02-15T06:39:42;95450.06;;;5.44;62.20
1472;BME280;963;42.644;23.336;2023-02-15T06:42:08;95447.38;;;5.36;62.27
1472;BME280;963;42.644;23.336;2023-02-15T06:44:33;95431.03;;;5.44;61.77
1472;BME280;963;42.644;23.336;2023-02-15T06:46:58;95441.97;;;5.59;61.61
1472;BME280;963;42.644;23.336;2023-02-15T06:49:24;95444.34;;;5.56;61.65
1472;BME280;963;42.644;23.336;2023-02-15T06:51:49;95441.97;;;5.59;61.51
1472;BME280;963;42.644;23.336;2023-02-15T06:54:15;95436.81;;;5.68;61.32
1472;BME280;963;42.644;23.336;2023-02-15T06:56:40;95432.09;;;5.56;60.92
1472;BME280;963;42.644;23.336;2023-02-15T06:59:05;95431.72;;;5.63;61.39
1472;BME280;963;42.644;23.336;2023-02-15T07:01:31;95429.06;;;5.77;60.83
1472;BME280;963;42.644;23.336;2023-02-15T07:03:56;95426.94;;;5.79;60.45
1472;BME280;963;42.644;23.336;2023-02-15T07:06:22;95432.44;;;5.77;60.48
1472;BME280;963;42.644;23.336;2023-02-15T07:08:47;95428.06;;;5.86;60.56
1472;BME280;963;42.644;23.336;2023-02-15T07:11:12;95427.38;;;5.94;59.95
1472;BME280;963;42.644;23.336;2023-02-15T07:13:56;95436.22;;;5.99;59.62
1472;BME280;963;42.644;23.336;2023-02-15T07:16:22;95430.13;;;5.89;60.08
1472;BME280;963;42.644;23.336;2023-02-15T07:18:47;95415.59;;;5.83;59.72
1472;BME280;963;42.644;23.336;2023-02-15T07:21:13;95427.19;;;6.05;59.25
1472;BME280;963;42.644;23.336;2023-02-15T07:23:39;95454.88;;;5.92;59.46
1472;BME280;963;42.644;23.336;2023-02-15T07:26:06;95450.81;;;6.00;59.10
1472;BME280;963;42.644;23.336;2023-02-15T07:28:33;95442.03;;;6.18;58.98
1472;BME280;963;42.644;23.336;2023-02-15T07:31:04;95440.91;;;6.10;59.35
1472;BME280;963;42.644;23.336;2023-02-15T07:33:31;95423.91;;;5.85;59.51
1472;BME280;963;42.644;23.336;2023-02-15T07:35:58;95425.28;;;5.97;59.11
1472;BME280;963;42.644;23.336;2023-02-15T07:38:25;95420.19;;;6.14;58.72
1472;BME280;963;42.644;23.336;2023-02-15T07:40:51;95417.34;;;6.24;58.72
1472;BME280;963;42.644;23.336;2023-02-15T07:43:16;95454.16;;;6.36;58.52
1472;BME280;963;42.644;23.336;2023-02-15T07:45:42;95438.38;;;6.41;57.81
1472;BME280;963;42.644;23.336;2023-02-15T07:48:08;95415.31;;;6.43;58.08
1472;BME280;963;42.644;23.336;2023-02-15T07:50:34;95420.16;;;6.58;57.54
1472;BME280;963;42.644;23.336;2023-02-15T07:53:02;95423.97;;;6.30;57.95
1472;BME280;963;42.644;23.336;2023-02-15T07:55:27;95419.75;;;6.65;57.54
1472;BME280;963;42.644;23.336;2023-02-15T07:57:52;95413.34;;;6.71;57.56
1472;BME280;963;42.644;23.336;2023-02-15T08:00:20;95413.50;;;6.75;56.67
1472;BME280;963;42.644;23.336;2023-02-15T08:02:54;95420.00;;;6.86;56.46
1472;BME280;963;42.644;23.336;2023-02-15T08:05:43;95398.44;;;6.49;57.30
1472;BME280;963;42.644;23.336;2023-02-15T08:08:10;95429.44;;;6.65;57.37
1472;BME280;963;42.644;23.336;2023-02-15T08:13:46;95410.94;;;6.83;56.10
1472;BME280;963;42.644;23.336;2023-02-15T08:16:22;95437.69;;;7.11;56.16
1472;BME280;963;42.644;23.336;2023-02-15T08:18:47;95436.31;;;7.22;55.92
1472;BME280;963;42.644;23.336;2023-02-15T08:21:13;95423.94;;;7.06;55.77
1472;BME280;963;42.644;23.336;2023-02-15T08:23:38;95417.72;;;6.93;55.76
1472;BME280;963;42.644;23.336;2023-02-15T08:26:04;95417.16;;;7.05;55.37
1472;BME280;963;42.644;23.336;2023-02-15T08:28:30;95426.50;;;7.28;55.01
1472;BME280;963;42.644;23.336;2023-02-15T08:31:13;95447.88;;;7.21;55.17
1472;BME280;963;42.644;23.336;2023-02-15T08:33:40;95427.88;;;7.34;54.78
1472;BME280;963;42.644;23.336;2023-02-15T08:36:14;95436.34;;;7.31;54.42
1472;BME280;963;42.644;23.336;2023-02-15T08:38:41;95430.06;;;7.41;54.48
1472;BME280;963;42.644;23.336;2023-02-15T16:50:16;95390.72;;;7.06;55.16
1472;BME280;963;42.644;23.336;2023-02-15T16:52:43;95384.41;;;7.07;55.08
1472;BME280;963;42.644;23.336;2023-02-15T16:55:23;95393.91;;;7.03;54.86
1472;BME280;963;42.644;23.336;2023-02-15T16:57:49;95399.03;;;7.08;54.87
1472;BME280;963;42.644;23.336;2023-02-15T17:00:21;95394.69;;;7.04;55.48
1472;BME280;963;42.644;23.336;2023-02-15T17:02:58;95382.88;;;7.06;55.37
1472;BME280;963;42.644;23.336;2023-02-15T17:05:31;95385.59;;;7.01;55.49
1472;BME280;963;42.644;23.336;2023-02-15T17:10:38;95406.97;;;6.64;56.32
1472;BME280;963;42.644;23.336;2023-02-15T17:13:13;95369.09;;;6.52;56.91
1472;BME280;963;42.644;23.336;2023-02-15T17:15:44;95380.03;;;6.54;56.41
1472;BME280;963;42.644;23.336;2023-02-15T17:18:31;95381.31;;;6.66;56.83
1472;BME280;963;42.644;23.336;2023-02-15T17:21:01;95371.91;;;6.65;56.43
1472;BME280;963;42.644;23.336;2023-02-15T17:23:38;95368.38;;;6.61;56.63
1472;BME280;963;42.644;23.336;2023-02-15T17:26:21;95375.59;;;6.64;56.67
1472;BME280;963;42.644;23.336;2023-02-15T17:28:52;95381.44;;;6.61;56.70
1472;BME280;963;42.644;23.336;2023-02-15T17:31:19;95379.59;;;6.61;56.34
1472;BME280;963;42.644;23.336;2023-02-15T17:33:45;95392.56;;;6.44;57.37
1472;BME280;963;42.644;23.336;2023-02-15T17:36:14;95368.91;;;6.18;57.25
1472;BME280;963;42.644;23.336;2023-02-15T17:41:25;95377.72;;;6.31;57.44
1472;BME280;963;42.644;23.336;2023-02-15T17:43:50;95387.66;;;6.20;57.57
1472;BME280;963;42.644;23.336;2023-02-15T17:46:16;95371.03;;;6.16;58.98
1472;BME280;963;42.644;23.336;2023-02-15T17:48:46;95377.31;;;6.37;57.56
1472;BME280;963;42.644;23.336;2023-02-15T17:51:13;95392.41;;;6.40;56.76
1472;BME280;963;42.644;23.336;2023-02-15T17:53:40;95400.59;;;6.47;57.65
1472;BME280;963;42.644;23.336;2023-02-15T17:56:26;95418.34;;;6.37;56.90
1472;BME280;963;42.644;23.336;2023-02-15T17:58:51;95387.09;;;6.32;57.27
1472;BME280;963;42.644;23.336;2023-02-15T18:01:18;95395.38;;;6.25;57.83
1472;BME280;963;42.644;23.336;2023-02-15T18:04:03;95401.00;;;6.18;57.80
1472;BME280;963;42.644;23.336;2023-02-15T18:06:47;95381.72;;;6.06;58.01
1472;BME280;963;42.644;23.336;2023-02-15T18:09:31;95401.91;;;6.14;57.63
1472;BME280;963;42.644;23.336;2023-02-15T18:12:56;95402.97;;;6.13;58.06
1472;BME280;963;42.644;23.336;2023-02-15T18:15:14;95393.34;;;6.00;58.32
1472;BME280;963;42.644;23.336;2023-02-15T18:17:44;95392.13;;;5.97;58.67
1472;BME280;963;42.644;23.336;2023-02-15T18:22:42;95398.41;;;5.82;58.51
1472;BME280;963;42.644;23.336;2023-02-15T18:25:12;95396.59;;;5.69;59.50
1472;BME280;963;42.644;23.336;2023-02-15T18:27:38;95392.41;;;5.82;58.90
1472;BME280;963;42.644;23.336;2023-02-15T18:30:05;95379.34;;;5.82;58.86
1472;BME280;963;42.644;23.336;2023-02-15T18:32:34;95394.50;;;5.93;58.75
1472;BME280;963;42.644;23.336;2023-02-15T18:35:01;95412.69;;;5.85;58.84
1472;BME280;963;42.644;23.336;2023-02-15T18:37:31;95384.31;;;5.70;59.32
1472;BME280;963;42.644;23.336;2023-02-15T18:39:58;95382.19;;;5.72;59.12
1472;BME280;963;42.644;23.336;2023-02-15T18:42:30;95399.41;;;5.73;59.05
1472;BME280;963;42.644;23.336;2023-02-15T18:44:58;95390.44;;;5.65;58.72
1472;BME280;963;42.644;23.336;2023-02-15T18:47:24;95394.81;;;5.42;59.59
1472;BME280;963;42.644;23.336;2023-02-15T18:49:49;95383.50;;;5.47;59.52
1472;BME280;963;42.644;23.336;2023-02-15T18:52:20;95409.69;;;5.42;59.79
1472;BME280;963;42.644;23.336;2023-02-15T18:54:50;95397.53;;;5.37;60.21
1472;BME280;963;42.644;23.336;2023-02-15T18:57:17;95399.09;;;5.24;59.46
1472;BME280;963;42.644;23.336;2023-02-15T18:59:42;95391.94;;;5.30;59.36
1472;BME280;963;42.644;23.336;2023-02-15T19:02:16;95395.31;;;5.17;59.78
1472;BME280;963;42.644;23.336;2023-02-15T19:04:42;95401.00;;;5.19;60.04
1472;BME280;963;42.644;23.336;2023-02-15T19:07:15;95406.44;;;5.22;60.72
1472;BME280;963;42.644;23.336;2023-02-15T19:09:43;95399.38;;;5.23;59.72
1472;BME280;963;42.644;23.336;2023-02-15T19:12:11;95398.19;;;5.15;59.82
1472;BME280;963;42.644;23.336;2023-02-15T19:14:37;95403.53;;;4.96;60.18
1472;BME280;963;42.644;23.336;2023-02-15T19:17:03;95396.75;;;5.09;59.77
1472;BME280;963;42.644;23.336;2023-02-15T19:19:28;95409.22;;;5.12;59.75
1472;BME280;963;42.644;23.336;2023-02-15T19:21:54;95388.28;;;5.03;60.04
1472;BME280;963;42.644;23.336;2023-02-15T19:24:39;95390.59;;;5.05;60.28
1472;BME280;963;42.644;23.336;2023-02-15T19:27:06;95390.09;;;5.03;60.34
1472;BME280;963;42.644;23.336;2023-02-15T19:29:36;95396.56;;;5.06;60.23
1472;BME280;963;42.644;23.336;2023-02-15T19:32:01;95383.72;;;5.09;60.53
1472;BME280;963;42.644;23.336;2023-02-15T19:34:27;95388.75;;;4.92;60.59
1472;BME280;963;42.644;23.336;2023-02-15T19:36:53;95419.72;;;4.80;61.00
1472;BME280;963;42.644;23.336;2023-02-15T19:39:34;95415.00;;;4.95;60.25
1472;BME280;963;42.644;23.336;2023-02-15T19:42:01;95408.66;;;4.88;60.36
1472;BME280;963;42.644;23.336;2023-02-15T19:44:27;95421.63;;;4.74;60.77
1472;BME280;963;42.644;23.336;2023-02-15T19:46:54;95414.34;;;4.90;60.55
1472;BME280;963;42.644;23.336;2023-02-15T19:49:20;95411.44;;;4.91;60.60
1472;BME280;963;42.644;23.336;2023-02-15T19:51:45;95413.19;;;4.96;60.41
1472;BME280;963;42.644;23.336;2023-02-15T19:54:24;95385.19;;;4.88;60.21
1472;BME280;963;42.644;23.336;2023-02-15T19:56:51;95407.19;;;5.09;60.40
1472;BME280;963;42.644;23.336;2023-02-15T19:59:31;95401.88;;;5.14;59.46
1472;BME280;963;42.644;23.336;2023-02-15T20:01:57;95400.63;;;4.98;59.95
1472;BME280;963;42.644;23.336;2023-02-15T20:04:23;95400.16;;;4.96;60.49
1472;BME280;963;42.644;23.336;2023-02-15T20:06:50;95409.56;;;4.64;59.97
1472;BME280;963;42.644;23.336;2023-02-15T20:09:22;95421.44;;;4.70;60.34
1472;BME280;963;42.644;23.336;2023-02-15T20:11:50;95400.59;;;4.70;60.66
1472;BME280;963;42.644;23.336;2023-02-15T20:14:16;95407.44;;;4.66;60.98
1472;BME280;963;42.644;23.336;2023-02-15T20:16:42;95406.28;;;4.59;60.95
1472;BME280;963;42.644;23.336;2023-02-15T20:19:07;95392.88;;;4.65;60.51
1472;BME280;963;42.644;23.336;2023-02-15T20:21:33;95403.28;;;4.65;60.58
1472;BME280;963;42.644;23.336;2023-02-15T20:24:00;95399.03;;;4.56;60.63
1472;BME280;963;42.644;23.336;2023-02-15T20:26:26;95408.19;;;4.53;60.58
1472;BME280;963;42.644;23.336;2023-02-15T20:28:54;95418.72;;;4.62;60.65
1472;BME280;963;42.644;23.336;2023-02-15T20:31:20;95398.84;;;4.66;60.63
1472;BME280;963;42.644;23.336;2023-02-15T20:33:49;95412.84;;;4.56;60.34
1472;BME280;963;42.644;23.336;2023-02-15T20:36:15;95400.59;;;4.57;60.43
1472;BME280;963;42.644;23.336;2023-02-15T20:38:42;95390.88;;;4.44;60.27
1472;BME280;963;42.644;23.336;2023-02-15T20:41:13;95392.53;;;4.39;60.44
1472;BME280;963;42.644;23.336;2023-02-15T20:43:58;95390.59;;;4.45;60.44
1472;BME280;963;42.644;23.336;2023-02-15T20:46:23;95397.88;;;4.48;60.52
1472;BME280;963;42.644;23.336;2023-02-15T20:48:48;95400.63;;;4.38;60.68
1472;BME280;963;42.644;23.336;2023-02-15T20:51:19;95388.94;;;4.35;60.33
1472;BME280;963;42.644;23.336;2023-02-15T20:53:45;95396.88;;;4.44;60.35
1472;BME280;963;42.644;23.336;2023-02-15T20:56:28;95396.81;;;4.49;60.28
1472;BME280;963;42.644;23.336;2023-02-15T20:58:54;95393.63;;;4.52;60.15
1472;BME280;963;42.644;23.336;2023-02-15T21:01:19;95409.84;;;4.49;60.46
1472;BME280;963;42.644;23.336;2023-02-15T21:03:45;95391.13;;;4.47;61.11
1472;BME280;963;42.644;23.336;2023-02-15T21:06:13;95389.72;;;4.36;61.08
1472;BME280;963;42.644;23.336;2023-02-15T21:08:39;95393.38;;;4.35;61.46
1472;BME280;963;42.644;23.336;2023-02-15T21:11:18;95395.97;;;4.02;63.47
1472;BME280;963;42.644;23.336;2023-02-15T21:13:46;95396.31;;;4.15;63.63
1472;BME280;963;42.644;23.336;2023-02-15T21:16:14;95387.88;;;4.04;63.09
1472;BME280;963;42.644;23.336;2023-02-15T21:18:40;95398.72;;;4.11;62.86
1472;BME280;963;42.644;23.336;2023-02-15T21:21:13;95438.84;;;4.10;62.68
1472;BME280;963;42.644;23.336;2023-02-15T21:23:41;95393.44;;;3.97;63.01
1472;BME280;963;42.644;23.336;2023-02-15T21:26:17;95374.81;;;4.09;62.87
1472;BME280;963;42.644;23.336;2023-02-15T21:28:44;95386.81;;;4.24;62.64
1472;BME280;963;42.644;23.336;2023-02-15T21:31:18;95391.63;;;4.30;61.99
1472;BME280;963;42.644;23.336;2023-02-15T21:33:44;95396.66;;;4.08;62.57
1472;BME280;963;42.644;23.336;2023-02-15T21:36:15;95389.88;;;4.26;62.32
1472;BME280;963;42.644;23.336;2023-02-15T21:38:41;95379.63;;;3.83;63.05
1472;BME280;963;42.644;23.336;2023-02-15T21:41:14;95398.56;;;4.02;62.79
1472;BME280;963;42.644;23.336;2023-02-15T21:43:59;95409.84;;;3.98;62.74
1472;BME280;963;42.644;23.336;2023-02-15T21:46:42;95390.75;;;4.02;62.32
1472;BME280;963;42.644;23.336;2023-02-15T21:49:26;95399.13;;;3.99;62.47
1472;BME280;963;42.644;23.336;2023-02-15T21:51:52;95401.47;;;3.82;64.05
1472;BME280;963;42.644;23.336;2023-02-15T21:54:36;95403.31;;;3.82;63.04
1472;BME280;963;42.644;23.336;2023-02-15T21:57:02;95403.97;;;3.73;62.81
1472;BME280;963;42.644;23.336;2023-02-15T21:59:28;95410.75;;;3.69;63.12
1472;BME280;963;42.644;23.336;2023-02-15T22:01:53;95419.41;;;3.65;63.49
1472;BME280;963;42.644;23.336;2023-02-15T22:04:23;95413.72;;;3.63;63.96
1472;BME280;963;42.644;23.336;2023-02-15T22:06:48;95395.56;;;3.58;63.49
1472;BME280;963;42.644;23.336;2023-02-15T22:09:25;95413.34;;;3.69;64.05
1472;BME280;963;42.644;23.336;2023-02-15T22:11:51;95408.44;;;3.68;63.04
1472;BME280;963;42.644;23.336;2023-02-15T22:16:51;95399.72;;;3.59;63.20
1472;BME280;963;42.644;23.336;2023-02-15T22:19:17;95433.38;;;3.69;63.66
1472;BME280;963;42.644;23.336;2023-02-15T22:21:42;95408.09;;;3.56;63.62
1472;BME280;963;42.644;23.336;2023-02-15T22:24:08;95428.03;;;3.60;63.67
1472;BME280;963;42.644;23.336;2023-02-15T22:26:33;95425.72;;;3.59;63.79
1472;BME280;963;42.644;23.336;2023-02-15T22:28:59;95434.50;;;3.63;63.85
1472;BME280;963;42.644;23.336;2023-02-15T22:31:24;95410.69;;;3.56;63.46
1472;BME280;963;42.644;23.336;2023-02-15T22:33:50;95411.81;;;3.50;63.59
1472;BME280;963;42.644;23.336;2023-02-15T22:36:28;95405.63;;;3.45;63.95
1472;BME280;963;42.644;23.336;2023-02-15T22:38:55;95409.84;;;3.41;63.95